createdAt,value
2022-09-04T06:36:15.740Z,36.8
2022-09-04T06:41:53.377Z,40.9
2022-09-04T06:47:37.559Z,43.3
2022-09-04T06:53:20.776Z,44.4
2022-09-04T06:59:03.697Z,45.1
2022-09-04T07:04:41.913Z,45.8
2022-09-04T07:10:18.459Z,46.4
2022-09-04T07:15:39.692Z,47.1
2022-09-04T07:21:18.452Z,47.8
2022-09-04T07:26:55.127Z,48.4
2022-09-04T07:32:34.356Z,49.1
2022-09-04T07:38:16.042Z,49.8
2022-09-04T07:43:58.411Z,50.3
2022-09-04T07:49:36.429Z,50.8
2022-09-04T07:55:29.270Z,51.3
2022-09-04T08:01:06.277Z,51.8
2022-09-04T08:06:47.710Z,52.3
2022-09-04T08:12:30.077Z,52.6
2022-09-04T08:18:09.893Z,53.1
2022-09-04T08:23:47.202Z,53.6
2022-09-04T08:29:12.456Z,54
2022-09-04T08:34:55.217Z,54.4
2022-09-04T08:40:35.630Z,54.9
2022-09-04T08:45:58.947Z,55.3
2022-09-04T08:51:39.084Z,55.8
2022-09-04T08:57:03.392Z,56.3
2022-09-04T09:02:29.521Z,56.7
2022-09-04T09:07:36.144Z,57.1
2022-09-04T09:13:19.988Z,57.6
2022-09-04T09:18:46.082Z,58.2
2022-09-04T09:24:12.437Z,57.8
2022-09-04T09:29:51.254Z,58
2022-09-04T09:35:28.976Z,58.9
2022-09-04T09:40:55.511Z,59.4
2022-09-04T09:46:36.423Z,59.8
2022-09-04T09:52:23.914Z,60.3
2022-09-04T09:58:11.602Z,60.7
2022-09-04T10:03:50.105Z,61.2
2022-09-04T10:09:32.551Z,61.6
2022-09-04T10:15:08.813Z,61.9
2022-09-04T10:20:49.462Z,62.4
2022-09-04T10:26:29.234Z,62.9
2022-09-04T10:32:14.509Z,63.1
2022-09-04T10:37:59.103Z,63.6
2022-09-04T10:43:39.466Z,63.9
2022-09-04T11:06:47.057Z,65.2
2022-09-04T11:12:26.903Z,65.7
2022-09-04T11:18:09.761Z,66.1
2022-09-04T11:23:32.206Z,66.4
2022-09-04T11:29:11.464Z,66.8
2022-09-04T11:34:50.071Z,66.7
2022-09-04T11:40:32.105Z,67.1
2022-09-04T11:46:10.638Z,67.4
2022-09-04T11:51:47.687Z,67.6
2022-09-04T11:57:25.283Z,67.9
2022-09-04T12:03:03.386Z,68.1
2022-09-04T12:08:53.545Z,68.3
2022-09-04T12:14:43.036Z,68.6
2022-09-04T12:20:29.746Z,68.7
2022-09-04T12:26:06.677Z,68.6
2022-09-04T12:31:55.478Z,67.7
2022-09-04T12:37:39.074Z,67.8
2022-09-04T12:43:17.405Z,67.1
2022-09-04T12:48:59.444Z,66.7
2022-09-04T12:54:37.993Z,65.6
2022-09-04T13:00:27.071Z,63.6
2022-09-04T13:06:06.289Z,60.6
2022-09-04T13:11:54.904Z,56.9
2022-09-04T13:17:34.463Z,54.4
2022-09-04T13:28:42.911Z,51
2022-09-04T13:34:29.657Z,49.9
2022-09-04T13:40:06.862Z,49.4
2022-09-04T13:45:44.028Z,48.5
2022-09-04T13:51:35.970Z,47.3
2022-09-04T13:57:17.400Z,46
2022-09-04T14:03:03.567Z,44.6
2022-09-04T14:08:41.636Z,43.1
2022-09-04T14:14:30.676Z,41.6
2022-09-04T14:20:22.429Z,40.3
2022-09-04T14:26:09.171Z,43.1
2022-09-04T14:31:58.634Z,42.1
2022-09-04T14:37:50.179Z,41.3
2022-09-04T14:43:27.374Z,40.2
2022-09-04T14:49:11.382Z,39.1
2022-09-04T14:54:55.449Z,38.1
2022-09-04T15:00:34.862Z,37.4
2022-09-04T15:06:20.324Z,36.6
2022-09-04T15:12:40.588Z,35.9
2022-09-04T18:51:18.621Z,17.4
2022-09-04T18:57:15.054Z,17.3
2022-09-04T19:03:00.305Z,17.1
2022-09-04T19:08:52.766Z,17.1
2022-09-04T19:15:04.755Z,16.9
2022-09-04T19:21:02.957Z,16.8
2022-09-04T19:27:05.533Z,16.8
2022-09-04T19:33:14.165Z,16.7
2022-09-04T19:47:46.429Z,16.6
2022-09-04T19:59:15.674Z,16.4
2022-09-04T20:05:51.980Z,16.4
2022-09-04T20:11:51.829Z,16.3
2022-09-04T20:17:43.233Z,16.3
2022-09-04T20:23:51.784Z,16.3
2022-09-04T20:29:50.473Z,16.3
2022-09-04T20:35:52.330Z,16.2
2022-09-04T20:41:21.960Z,16.1
2022-09-04T21:07:18.261Z,16
2022-09-04T21:24:57.786Z,15.9
2022-09-04T21:30:55.003Z,15.9
2022-09-04T21:37:21.562Z,15.9
2022-09-04T21:43:52.601Z,15.9
2022-09-04T21:50:06.974Z,15.9
2022-09-04T22:04:29.098Z,15.9
2022-09-04T22:17:13.717Z,15.9
2022-09-04T22:23:01.298Z,15.9
2022-09-04T22:29:23.828Z,15.9
2022-09-04T22:36:03.344Z,15.9
2022-09-04T22:41:50.664Z,16
2022-09-04T22:47:44.265Z,16
2022-09-04T23:00:37.208Z,16
2022-09-04T23:14:42.254Z,16
2022-09-04T23:30:07.178Z,16
2022-09-04T23:36:28.493Z,16
2022-09-04T23:42:30.884Z,15.9
2022-09-04T23:49:05.451Z,15.9
2022-09-04T23:54:42.005Z,15.8
